Time;durP1;ratioP1;P1;durP2;ratioP2;P2;SDS_P1;SDS_P2;PMS_P1;PMS_P2;Temp;Humidity;BMP_temperature;BMP_pressure;BME280_temperature;BME280_humidity;BME280_pressure;Samples;Min_cycle;Max_cycle;Signal;HPM_P1;HPM_P2
2024/02/23 00:01:27;;;;;;;2.08;1.90;;;;;;;;;;5014034;28;59255;-77
2024/02/23 00:03:52;;;;;;;2.38;1.45;;;;;;;;;;5026268;28;58824;-78
2024/02/23 00:06:18;;;;;;;3.03;1.90;;;;;;;;;;5015361;28;58350;-76
2024/02/23 00:08:43;;;;;;;1.93;1.60;;;;;;;;;;5016998;28;59384;-77
2024/02/23 00:11:08;;;;;;;1.50;1.40;;;;;;;;;;4988311;28;59001;-74
2024/02/23 00:13:33;;;;;;;2.13;1.30;;;;;;;;;;5022598;28;58294;-73
2024/02/23 00:15:58;;;;;;;2.83;2.00;;;;;;;;;;5003977;28;59384;-74
2024/02/23 00:18:24;;;;;;;2.60;1.47;;;;;;;;;;5004547;28;58486;-73
2024/02/23 00:20:49;;;;;;;1.90;1.67;;;;;;;;;;5020576;28;59606;-74
2024/02/23 00:23:14;;;;;;;4.45;1.50;;;;;;;;;;5026703;28;58688;-76
2024/02/23 00:25:39;;;;;;;3.88;1.45;;;;;;;;;;5026182;28;58342;-73
2024/02/23 00:28:05;;;;;;;2.27;1.47;;;;;;;;;;5028374;28;59309;-75
2024/02/23 00:30:30;;;;;;;2.70;1.48;;;;;;;;;;5027587;28;60303;-74
2024/02/23 00:32:55;;;;;;;3.72;2.15;;;;;;;;;;5019067;28;58397;-74
2024/02/23 00:35:20;;;;;;;2.03;1.13;;;;;;;;;;5021728;28;60472;-75
2024/02/23 00:37:46;;;;;;;3.47;1.40;;;;;;;;;;5021433;28;58554;-74
2024/02/23 00:40:11;;;;;;;1.73;1.35;;;;;;;;;;5014308;28;59515;-74
2024/02/23 00:42:36;;;;;;;2.83;1.58;;;;;;;;;;5027155;28;59065;-74
2024/02/23 00:45:02;;;;;;;3.70;1.83;;;;;;;;;;5005916;28;58437;-73
2024/02/23 00:47:27;;;;;;;5.13;1.48;;;;;;;;;;5015613;28;59669;-74
2024/02/23 00:49:53;;;;;;;4.97;1.60;;;;;;;;;;5019962;28;58687;-79
2024/02/23 00:52:18;;;;;;;2.03;1.20;;;;;;;;;;5015042;28;58522;-79
2024/02/23 00:54:43;;;;;;;3.87;1.40;;;;;;;;;;5012289;28;59667;-79
2024/02/23 00:57:08;;;;;;;3.33;1.23;;;;;;;;;;5017978;28;58870;-79
2024/02/23 00:59:33;;;;;;;2.50;1.70;;;;;;;;;;5012371;28;58418;-73
2024/02/23 01:01:58;;;;;;;2.55;1.83;;;;;;;;;;5009808;28;59171;-74
2024/02/23 01:04:23;;;;;;;3.57;1.50;;;;;;;;;;5010961;28;58437;-74
2024/02/23 01:06:49;;;;;;;2.70;1.50;;;;;;;;;;5021708;28;58393;-74
2024/02/23 01:09:16;;;;;;;1.93;1.77;;;;;;;;;;5019931;28;58926;-74
2024/02/23 01:11:41;;;;;;;1.85;1.27;;;;;;;;;;5014325;28;58488;-74
2024/02/23 01:14:06;;;;;;;2.47;1.37;;;;;;;;;;5007824;28;59777;-74
2024/02/23 01:16:32;;;;;;;2.73;2.03;;;;;;;;;;5007326;28;59388;-74
2024/02/23 01:18:57;;;;;;;2.53;1.33;;;;;;;;;;5009757;28;58497;-75
2024/02/23 01:21:22;;;;;;;1.33;1.00;;;;;;;;;;5022387;28;59522;-75
2024/02/23 01:23:47;;;;;;;4.70;1.90;;;;;;;;;;5023514;28;58616;-74
2024/02/23 01:26:13;;;;;;;2.15;1.33;;;;;;;;;;5015520;28;59347;-74
2024/02/23 01:28:38;;;;;;;1.80;1.60;;;;;;;;;;5012988;28;59913;-73
2024/02/23 01:31:04;;;;;;;3.33;1.80;;;;;;;;;;5023669;28;58399;-74
2024/02/23 01:33:29;;;;;;;1.42;1.17;;;;;;;;;;5014413;28;60449;-74
2024/02/23 01:35:56;;;;;;;2.43;1.53;;;;;;;;;;5012988;28;58569;-75
2024/02/23 01:38:22;;;;;;;1.45;1.30;;;;;;;;;;5014552;28;58368;-73
2024/02/23 01:40:49;;;;;;;1.58;1.20;;;;;;;;;;5013219;28;59532;-74
2024/02/23 01:43:15;;;;;;;2.05;1.27;;;;;;;;;;5013389;28;58447;-75
2024/02/23 01:45:40;;;;;;;2.17;1.20;;;;;;;;;;5024932;28;59801;-74
2024/02/23 01:48:05;;;;;;;2.17;1.73;;;;;;;;;;5023981;28;58452;-74
2024/02/23 01:50:30;;;;;;;2.78;1.50;;;;;;;;;;5024578;27;58272;-74
2024/02/23 01:52:57;;;;;;;3.77;1.43;;;;;;;;;;5026513;27;60350;-75
2024/02/23 01:55:22;;;;;;;3.38;1.30;;;;;;;;;;5026748;28;60962;-73
2024/02/23 01:57:48;;;;;;;1.27;1.08;;;;;;;;;;5018282;28;58522;-74
2024/02/23 02:00:17;;;;;;;2.53;1.40;;;;;;;;;;5017806;28;60213;-75
2024/02/23 02:02:43;;;;;;;3.22;1.77;;;;;;;;;;5012445;28;59041;-74
2024/02/23 02:05:08;;;;;;;2.00;1.35;;;;;;;;;;5013791;28;60226;-73
2024/02/23 02:07:33;;;;;;;1.37;1.00;;;;;;;;;;5015360;28;58685;-74
2024/02/23 02:09:59;;;;;;;3.00;2.30;;;;;;;;;;5015304;28;58331;-80
2024/02/23 02:12:28;;;;;;;1.75;1.35;;;;;;;;;;5017037;28;64197;-79
2024/02/23 02:14:54;;;;;;;1.65;1.23;;;;;;;;;;5018591;28;58497;-80
2024/02/23 02:17:19;;;;;;;1.92;1.20;;;;;;;;;;5021710;28;58500;-79
2024/02/23 02:19:50;;;;;;;2.30;1.65;;;;;;;;;;5020805;28;58519;-79
2024/02/23 02:22:15;;;;;;;2.00;1.40;;;;;;;;;;5013627;28;60901;-79
2024/02/23 02:24:43;;;;;;;3.90;1.17;;;;;;;;;;5016466;28;58421;-79
2024/02/23 02:27:08;;;;;;;1.70;1.27;;;;;;;;;;5017341;28;59281;-78
2024/02/23 02:29:35;;;;;;;1.60;1.13;;;;;;;;;;5017371;28;58495;-79
2024/02/23 02:32:00;;;;;;;3.28;1.75;;;;;;;;;;5021692;28;59557;-79
2024/02/23 02:34:25;;;;;;;1.77;1.10;;;;;;;;;;5027457;28;58644;-78
2024/02/23 02:36:51;;;;;;;1.77;1.33;;;;;;;;;;5028528;28;58352;-78
2024/02/23 02:39:16;;;;;;;1.73;1.48;;;;;;;;;;5028121;28;58536;-79
2024/02/23 02:41:41;;;;;;;2.03;1.43;;;;;;;;;;5015737;28;58496;-78
2024/02/23 02:44:07;;;;;;;1.40;1.30;;;;;;;;;;5022438;28;58501;-79
2024/02/23 02:46:32;;;;;;;1.20;1.02;;;;;;;;;;5025700;28;60289;-79
2024/02/23 02:48:57;;;;;;;1.67;1.57;;;;;;;;;;5020799;28;58698;-79
2024/02/23 02:51:22;;;;;;;2.53;1.20;;;;;;;;;;5025697;28;59709;-77
2024/02/23 02:53:48;;;;;;;2.08;1.10;;;;;;;;;;5027899;28;59650;-79
2024/02/23 02:56:13;;;;;;;1.50;0.87;;;;;;;;;;5026787;28;58363;-79
2024/02/23 02:58:38;;;;;;;1.60;0.88;;;;;;;;;;5024688;28;60181;-80
2024/02/23 03:01:03;;;;;;;2.53;0.93;;;;;;;;;;5015852;28;59802;-79
2024/02/23 03:03:28;;;;;;;2.40;1.30;;;;;;;;;;5028900;28;58655;-79
2024/02/23 03:05:53;;;;;;;1.85;1.70;;;;;;;;;;5016450;28;60341;-77
2024/02/23 03:08:19;;;;;;;1.73;1.60;;;;;;;;;;5020533;28;59755;-79
2024/02/23 03:10:44;;;;;;;1.20;1.13;;;;;;;;;;5026982;28;59262;-74
2024/02/23 03:13:09;;;;;;;1.58;1.30;;;;;;;;;;5025405;28;58859;-74
2024/02/23 03:15:34;;;;;;;1.70;1.30;;;;;;;;;;5028814;28;58450;-74
2024/02/23 03:18:01;;;;;;;1.73;1.13;;;;;;;;;;5018569;28;59209;-74
2024/02/23 03:20:26;;;;;;;1.77;0.80;;;;;;;;;;5021824;28;58991;-79
2024/02/23 03:22:51;;;;;;;3.72;1.73;;;;;;;;;;5023177;28;58474;-80
2024/02/23 03:25:16;;;;;;;4.72;1.08;;;;;;;;;;5017144;28;59112;-77
2024/02/23 03:27:41;;;;;;;3.63;1.27;;;;;;;;;;5018209;28;59270;-79
2024/02/23 03:30:10;;;;;;;1.63;0.93;;;;;;;;;;5018666;28;58486;-79
2024/02/23 03:32:38;;;;;;;;;;;;;;;;;;5022897;28;58839;-79
2024/02/23 03:35:05;;;;;;;1.38;1.27;;;;;;;;;;5024485;28;58632;-79
2024/02/23 03:37:30;;;;;;;1.20;1.00;;;;;;;;;;5018580;28;60625;-80
2024/02/23 03:39:55;;;;;;;2.50;0.75;;;;;;;;;;5026717;28;58727;-79
2024/02/23 03:42:20;;;;;;;1.75;1.30;;;;;;;;;;5026366;28;58332;-80
2024/02/23 03:44:45;;;;;;;1.58;1.00;;;;;;;;;;5028863;28;59291;-79
2024/02/23 03:47:12;;;;;;;1.37;0.97;;;;;;;;;;5021334;28;58735;-79
2024/02/23 03:49:37;;;;;;;1.15;0.88;;;;;;;;;;5017745;28;58513;-79
2024/02/23 03:52:02;;;;;;;1.37;1.27;;;;;;;;;;5015898;28;58832;-80
2024/02/23 03:54:27;;;;;;;2.03;1.70;;;;;;;;;;5019520;28;58430;-79
2024/02/23 03:56:52;;;;;;;1.50;1.10;;;;;;;;;;5023162;28;59144;-79
2024/02/23 03:59:18;;;;;;;2.53;1.23;;;;;;;;;;5017342;28;58987;-79
2024/02/23 04:01:44;;;;;;;1.48;1.20;;;;;;;;;;5018633;28;58324;-79
2024/02/23 04:04:09;;;;;;;1.20;0.95;;;;;;;;;;5027042;28;59335;-79
2024/02/23 04:06:34;;;;;;;1.80;1.37;;;;;;;;;;5029426;28;57812;-79
2024/02/23 04:08:59;;;;;;;3.00;0.90;;;;;;;;;;5028122;28;58531;-79
2024/02/23 04:11:24;;;;;;;1.33;0.80;;;;;;;;;;5025588;28;59559;-78
2024/02/23 04:13:50;;;;;;;1.08;0.98;;;;;;;;;;5030237;28;58456;-80
2024/02/23 04:16:15;;;;;;;1.17;0.98;;;;;;;;;;5025612;28;58553;-80
2024/02/23 04:18:40;;;;;;;2.08;1.05;;;;;;;;;;5027114;28;58708;-79
2024/02/23 04:21:05;;;;;;;1.20;1.02;;;;;;;;;;5018875;28;58446;-74
2024/02/23 04:23:31;;;;;;;1.37;1.00;;;;;;;;;;5024265;28;58518;-74
2024/02/23 04:25:56;;;;;;;1.47;0.97;;;;;;;;;;5025540;28;59486;-74
2024/02/23 04:28:21;;;;;;;1.63;1.10;;;;;;;;;;5027403;28;58574;-73
2024/02/23 04:30:46;;;;;;;1.17;1.00;;;;;;;;;;5027616;28;59187;-78
2024/02/23 04:33:11;;;;;;;0.87;0.83;;;;;;;;;;5014534;28;58816;-79
2024/02/23 04:35:36;;;;;;;2.20;1.70;;;;;;;;;;5026135;28;58457;-79
2024/02/23 04:38:02;;;;;;;1.17;0.97;;;;;;;;;;5019271;28;60282;-79
2024/02/23 04:40:27;;;;;;;1.33;1.17;;;;;;;;;;5017118;28;58340;-79
2024/02/23 04:42:52;;;;;;;3.00;1.67;;;;;;;;;;5018413;28;59231;-78
2024/02/23 04:45:17;;;;;;;1.03;0.97;;;;;;;;;;5015273;28;58726;-80
2024/02/23 04:47:42;;;;;;;1.07;0.90;;;;;;;;;;5023611;28;58431;-79
2024/02/23 04:50:08;;;;;;;1.23;0.90;;;;;;;;;;5024591;28;59275;-79
2024/02/23 04:52:33;;;;;;;1.05;0.85;;;;;;;;;;5021884;28;59015;-80
2024/02/23 04:54:59;;;;;;;0.98;0.98;;;;;;;;;;5017857;28;58590;-79
2024/02/23 04:57:24;;;;;;;2.87;0.90;;;;;;;;;;5008269;28;64390;-79
2024/02/23 04:59:49;;;;;;;0.87;0.80;;;;;;;;;;5017988;28;58508;-79
2024/02/23 05:02:14;;;;;;;2.08;0.90;;;;;;;;;;5017419;28;59366;-79
2024/02/23 05:04:39;;;;;;;1.47;0.83;;;;;;;;;;5020428;28;58552;-79
2024/02/23 05:07:04;;;;;;;1.95;1.33;;;;;;;;;;5018639;28;58440;-79
2024/02/23 05:09:29;;;;;;;2.47;1.35;;;;;;;;;;5031410;28;59219;-80
2024/02/23 05:11:55;;;;;;;1.30;1.00;;;;;;;;;;5027532;28;58442;-77
2024/02/23 05:14:20;;;;;;;3.25;0.90;;;;;;;;;;5023933;28;58480;-79
2024/02/23 05:16:45;;;;;;;2.07;0.83;;;;;;;;;;5015795;28;59290;-80
2024/02/23 05:19:10;;;;;;;1.42;1.20;;;;;;;;;;5016930;28;58393;-79
2024/02/23 05:21:35;;;;;;;1.05;0.82;;;;;;;;;;5018368;28;59237;-80
2024/02/23 05:24:00;;;;;;;1.08;1.08;;;;;;;;;;5027377;28;60766;-80
2024/02/23 05:26:26;;;;;;;1.52;0.80;;;;;;;;;;5027848;28;58403;-78
2024/02/23 05:28:52;;;;;;;2.55;1.05;;;;;;;;;;5025863;28;59202;-80
2024/02/23 05:31:17;;;;;;;1.98;1.35;;;;;;;;;;5018377;28;59925;-79
2024/02/23 05:33:42;;;;;;;1.43;1.33;;;;;;;;;;5017272;28;58383;-80
2024/02/23 05:36:08;;;;;;;2.40;1.53;;;;;;;;;;4989867;28;59756;-77
2024/02/23 05:38:33;;;;;;;0.73;0.65;;;;;;;;;;5027951;28;58467;-78
2024/02/23 05:40:58;;;;;;;3.57;0.80;;;;;;;;;;5017507;28;59280;-79
2024/02/23 05:43:23;;;;;;;4.85;1.40;;;;;;;;;;5021814;28;59831;-79
2024/02/23 05:45:49;;;;;;;2.78;1.15;;;;;;;;;;5021374;28;58806;-80
2024/02/23 05:48:14;;;;;;;2.25;1.88;;;;;;;;;;5015247;28;59549;-80
2024/02/23 05:50:39;;;;;;;5.40;1.88;;;;;;;;;;5018694;28;59813;-78
2024/02/23 05:53:04;;;;;;;9.55;2.17;;;;;;;;;;5025911;28;58558;-80
2024/02/23 05:55:30;;;;;;;7.72;2.70;;;;;;;;;;5021398;28;58876;-79
2024/02/23 05:57:56;;;;;;;4.17;1.50;;;;;;;;;;5017040;28;59051;-80
2024/02/23 06:00:21;;;;;;;7.43;3.35;;;;;;;;;;5016644;28;59678;-79
2024/02/23 06:02:46;;;;;;;3.95;2.60;;;;;;;;;;5018099;28;59845;-79
2024/02/23 06:05:12;;;;;;;4.73;3.07;;;;;;;;;;5018371;28;58435;-80
2024/02/23 06:07:37;;;;;;;6.15;3.10;;;;;;;;;;5024220;28;59254;-80
2024/02/23 06:10:02;;;;;;;13.87;2.50;;;;;;;;;;5026696;28;60321;-80
2024/02/23 06:12:28;;;;;;;7.87;3.53;;;;;;;;;;5030989;28;58441;-79
2024/02/23 06:14:55;;;;;;;8.07;2.28;;;;;;;;;;5027804;28;58748;-79
2024/02/23 06:17:20;;;;;;;10.00;3.60;;;;;;;;;;5027320;28;59868;-79
2024/02/23 06:19:45;;;;;;;10.60;3.27;;;;;;;;;;5018936;28;58437;-79
2024/02/23 06:22:12;;;;;;;7.53;3.47;;;;;;;;;;5021533;28;58856;-80
2024/02/23 06:24:37;;;;;;;7.53;2.78;;;;;;;;;;5023843;28;58430;-80
2024/02/23 06:27:03;;;;;;;9.48;3.33;;;;;;;;;;5018628;28;59361;-80
2024/02/23 06:29:28;;;;;;;8.90;3.13;;;;;;;;;;5027539;28;59686;-80
2024/02/23 06:31:53;;;;;;;8.10;3.43;;;;;;;;;;5018929;28;58571;-78
2024/02/23 06:34:18;;;;;;;8.35;3.40;;;;;;;;;;5017264;28;59486;-79
2024/02/23 06:36:44;;;;;;;9.23;3.78;;;;;;;;;;5020728;28;58781;-78
2024/02/23 06:39:09;;;;;;;9.60;4.00;;;;;;;;;;5026238;28;58527;-80
2024/02/23 06:41:34;;;;;;;11.93;4.43;;;;;;;;;;5015065;28;59622;-79
2024/02/23 06:43:59;;;;;;;10.30;4.00;;;;;;;;;;5017988;28;58426;-78
2024/02/23 06:46:25;;;;;;;9.30;3.60;;;;;;;;;;5018190;28;58414;-79
2024/02/23 06:48:50;;;;;;;6.25;2.92;;;;;;;;;;5018466;28;59714;-79
2024/02/23 06:51:16;;;;;;;9.85;4.20;;;;;;;;;;5017451;28;58387;-79
2024/02/23 06:53:41;;;;;;;8.10;3.63;;;;;;;;;;5027775;28;58625;-80
2024/02/23 06:56:06;;;;;;;7.82;4.05;;;;;;;;;;5013280;28;58801;-80
2024/02/23 06:58:31;;;;;;;9.70;4.10;;;;;;;;;;5025711;28;58513;-79
2024/02/23 07:00:57;;;;;;;9.93;5.00;;;;;;;;;;5021642;28;61212;-78
2024/02/23 07:03:22;;;;;;;12.27;4.57;;;;;;;;;;5019093;28;59018;-79
2024/02/23 07:05:48;;;;;;;8.13;3.75;;;;;;;;;;5026499;28;60096;-80
2024/02/23 07:08:13;;;;;;;11.98;5.05;;;;;;;;;;5006152;28;60700;-79
2024/02/23 07:10:38;;;;;;;9.90;4.57;;;;;;;;;;5007417;28;58565;-80
2024/02/23 07:13:03;;;;;;;13.30;4.50;;;;;;;;;;5005911;28;60248;-80
2024/02/23 07:15:29;;;;;;;7.87;4.37;;;;;;;;;;5006142;28;58976;-79
2024/02/23 07:17:55;;;;;;;12.68;4.72;;;;;;;;;;5006599;28;58473;-80
2024/02/23 07:20:20;;;;;;;8.23;4.32;;;;;;;;;;5008485;28;60261;-79
2024/02/23 07:22:45;;;;;;;9.65;3.92;;;;;;;;;;5009197;28;58798;-80
2024/02/23 07:25:11;;;;;;;10.35;4.82;;;;;;;;;;5015157;28;58451;-79
2024/02/23 07:27:36;;;;;;;7.13;3.58;;;;;;;;;;5014126;28;59254;-80
2024/02/23 07:30:02;;;;;;;7.50;3.10;;;;;;;;;;5007300;28;58459;-79
2024/02/23 07:32:29;;;;;;;7.70;4.15;;;;;;;;;;5005630;28;59548;-79
2024/02/23 07:34:54;;;;;;;10.40;3.97;;;;;;;;;;5023743;28;59925;-80
2024/02/23 07:37:19;;;;;;;7.07;3.97;;;;;;;;;;5016153;28;58389;-80
2024/02/23 07:39:45;;;;;;;8.20;3.70;;;;;;;;;;5017114;28;58611;-80
2024/02/23 07:42:10;;;;;;;7.23;3.27;;;;;;;;;;5017780;28;59570;-79
2024/02/23 07:44:37;;;;;;;7.22;3.33;;;;;;;;;;5028142;28;58396;-80
2024/02/23 07:47:02;;;;;;;10.55;3.00;;;;;;;;;;5013548;28;59272;-79
2024/02/23 07:49:28;;;;;;;7.88;3.35;;;;;;;;;;5022036;28;58239;-75
2024/02/23 07:51:53;;;;;;;8.30;3.92;;;;;;;;;;5026645;28;60274;-75
2024/02/23 07:54:18;;;;;;;4.60;2.73;;;;;;;;;;5024438;28;59863;-75
2024/02/23 07:56:43;;;;;;;11.77;4.22;;;;;;;;;;5016101;28;58524;-75
2024/02/23 07:59:09;;;;;;;7.10;3.50;;;;;;;;;;5027625;28;60206;-79
2024/02/23 08:01:34;;;;;;;7.90;4.15;;;;;;;;;;5030175;28;58268;-79
2024/02/23 08:03:59;;;;;;;6.67;4.10;;;;;;;;;;5028016;28;58468;-78
2024/02/23 08:06:25;;;;;;;6.38;2.92;;;;;;;;;;5024301;28;59784;-80
2024/02/23 08:08:50;;;;;;;8.45;4.35;;;;;;;;;;5017594;28;58468;-79
2024/02/23 08:11:16;;;;;;;7.63;3.77;;;;;;;;;;5015299;28;59470;-79
2024/02/23 08:13:41;;;;;;;8.03;4.07;;;;;;;;;;5022610;28;59149;-80
2024/02/23 08:16:06;;;;;;;9.23;4.73;;;;;;;;;;5025377;28;58416;-79
2024/02/23 08:18:31;;;;;;;6.72;2.92;;;;;;;;;;5022875;28;58976;-79
2024/02/23 08:20:57;;;;;;;6.68;3.72;;;;;;;;;;5012752;28;58933;-78
2024/02/23 08:23:23;;;;;;;12.25;4.00;;;;;;;;;;5017732;28;58503;-79
2024/02/23 08:25:48;;;;;;;10.32;4.35;;;;;;;;;;5004277;28;58975;-79
2024/02/23 08:28:13;;;;;;;5.93;2.70;;;;;;;;;;5016115;28;60004;-80
2024/02/23 08:30:38;;;;;;;7.78;4.18;;;;;;;;;;5026471;28;59521;-80
2024/02/23 08:33:03;;;;;;;7.93;3.43;;;;;;;;;;5026242;28;58901;-80
2024/02/23 08:35:29;;;;;;;6.13;3.57;;;;;;;;;;5020199;28;58213;-79
2024/02/23 08:37:54;;;;;;;7.03;3.15;;;;;;;;;;5026730;28;59478;-78
2024/02/23 08:40:19;;;;;;;5.07;3.00;;;;;;;;;;5022352;28;58957;-80
2024/02/23 08:42:44;;;;;;;9.17;3.87;;;;;;;;;;5023464;28;58433;-79
2024/02/23 08:45:12;;;;;;;4.80;3.50;;;;;;;;;;5026976;28;58837;-80
2024/02/23 08:47:37;;;;;;;9.43;3.73;;;;;;;;;;5014235;28;59070;-80
2024/02/23 08:50:02;;;;;;;6.60;3.30;;;;;;;;;;5019433;28;58418;-80
2024/02/23 08:52:27;;;;;;;7.87;3.10;;;;;;;;;;5025138;28;59767;-79
2024/02/23 08:54:53;;;;;;;6.00;2.97;;;;;;;;;;5029051;28;58543;-80
2024/02/23 08:57:19;;;;;;;5.85;2.90;;;;;;;;;;5027137;28;60264;-79
2024/02/23 08:59:47;;;;;;;5.93;3.15;;;;;;;;;;5018829;28;59195;-76
2024/02/23 09:02:12;;;;;;;5.07;2.60;;;;;;;;;;5010201;28;58339;-77
2024/02/23 09:04:37;;;;;;;6.90;3.10;;;;;;;;;;5015592;28;59329;-76
2024/02/23 09:07:02;;;;;;;5.97;2.80;;;;;;;;;;5021478;28;59711;-76
2024/02/23 09:09:28;;;;;;;6.10;3.47;;;;;;;;;;5027838;28;58351;-80
2024/02/23 09:11:53;;;;;;;5.53;3.13;;;;;;;;;;5016781;28;60346;-80
2024/02/23 09:14:18;;;;;;;7.63;3.50;;;;;;;;;;5017135;28;58441;-81
2024/02/23 09:16:44;;;;;;;5.67;2.97;;;;;;;;;;5017663;28;60331;-80
2024/02/23 09:19:09;;;;;;;7.45;3.33;;;;;;;;;;5020388;28;58528;-81
2024/02/23 09:21:34;;;;;;;6.28;3.60;;;;;;;;;;5028416;27;58726;-81
2024/02/23 09:23:59;;;;;;;5.72;3.35;;;;;;;;;;5025200;28;59994;-81
2024/02/23 09:26:24;;;;;;;4.93;2.40;;;;;;;;;;5030772;28;59021;-81
2024/02/23 09:28:49;;;;;;;6.68;2.90;;;;;;;;;;5020150;28;58503;-80
2024/02/23 09:31:15;;;;;;;5.03;2.30;;;;;;;;;;5021143;28;58435;-81
2024/02/23 09:33:41;;;;;;;3.73;2.50;;;;;;;;;;5027159;28;58900;-80
2024/02/23 09:36:07;;;;;;;5.10;3.20;;;;;;;;;;5028214;28;60182;-81
2024/02/23 09:38:32;;;;;;;5.50;3.03;;;;;;;;;;5026213;28;58941;-81
2024/02/23 09:40:57;;;;;;;7.17;2.80;;;;;;;;;;5017310;28;58466;-80
2024/02/23 09:43:26;;;;;;;6.15;2.80;;;;;;;;;;5015221;28;59427;-81
2024/02/23 09:45:51;;;;;;;4.30;2.25;;;;;;;;;;5009560;28;58561;-80
2024/02/23 09:48:18;;;;;;;5.82;3.40;;;;;;;;;;5012662;28;58386;-80
2024/02/23 09:50:44;;;;;;;4.63;2.65;;;;;;;;;;5028468;28;59580;-80
2024/02/23 09:53:11;;;;;;;5.93;3.67;;;;;;;;;;5027370;28;59269;-80
2024/02/23 09:55:36;;;;;;;5.50;2.42;;;;;;;;;;5016796;28;58550;-80
2024/02/23 09:58:02;;;;;;;4.23;2.27;;;;;;;;;;5008771;28;58405;-80
2024/02/23 10:00:27;;;;;;;6.20;2.88;;;;;;;;;;5008444;28;58548;-80
2024/02/23 10:02:54;;;;;;;5.22;2.45;;;;;;;;;;5010149;28;59786;-81
2024/02/23 10:05:19;;;;;;;4.95;2.75;;;;;;;;;;5007759;28;59018;-80
2024/02/23 10:07:44;;;;;;;6.13;2.77;;;;;;;;;;5024580;28;58564;-80
2024/02/23 10:10:10;;;;;;;8.83;2.93;;;;;;;;;;5027192;27;60197;-76
2024/02/23 10:12:35;;;;;;;6.93;3.97;;;;;;;;;;5019394;28;58370;-76
2024/02/23 10:15:03;;;;;;;7.13;2.80;;;;;;;;;;5016703;28;58465;-76
2024/02/23 10:17:29;;;;;;;5.55;2.50;;;;;;;;;;5026431;28;59850;-76
2024/02/23 10:19:54;;;;;;;5.00;2.45;;;;;;;;;;5016347;28;58409;-76
2024/02/23 10:22:21;;;;;;;5.47;2.57;;;;;;;;;;5012802;28;59184;-76
2024/02/23 10:24:46;;;;;;;4.63;2.25;;;;;;;;;;4982258;28;1072038;-76
2024/02/23 10:27:11;;;;;;;5.47;2.58;;;;;;;;;;5024265;28;58291;-75
2024/02/23 10:29:36;;;;;;;4.80;2.27;;;;;;;;;;5017167;28;59267;-76
2024/02/23 10:32:03;;;;;;;6.05;1.90;;;;;;;;;;5026862;28;58641;-76
2024/02/23 10:34:29;;;;;;;5.25;1.45;;;;;;;;;;5018627;28;58520;-75
2024/02/23 10:36:55;;;;;;;4.30;1.42;;;;;;;;;;5021749;28;59304;-75
2024/02/23 10:39:22;;;;;;;3.97;1.30;;;;;;;;;;5027175;28;58571;-75
2024/02/23 10:41:54;;;;;;;6.82;1.30;;;;;;;;;;5027223;28;60610;-75
2024/02/23 10:44:20;;;;;;;2.58;1.05;;;;;;;;;;5009650;28;63704;-76
2024/02/23 10:46:45;;;;;;;2.13;1.00;;;;;;;;;;5012125;28;58407;-75
2024/02/23 10:49:12;;;;;;;4.15;1.10;;;;;;;;;;5016459;28;58788;-75
2024/02/23 10:51:39;;;;;;;3.78;1.65;;;;;;;;;;5017766;28;59200;-75
2024/02/23 10:54:04;;;;;;;1.95;1.15;;;;;;;;;;5026892;28;58690;-75
2024/02/23 10:56:30;;;;;;;4.67;1.30;;;;;;;;;;5009579;28;58881;-75
2024/02/23 10:58:55;;;;;;;3.88;1.58;;;;;;;;;;5007436;28;60023;-75
2024/02/23 11:01:21;;;;;;;3.47;1.30;;;;;;;;;;5011981;28;59289;-74
2024/02/23 11:03:49;;;;;;;4.45;1.33;;;;;;;;;;5021387;28;58428;-77
2024/02/23 11:06:16;;;;;;;2.55;1.20;;;;;;;;;;5025010;28;57898;-76
2024/02/23 11:08:41;;;;;;;2.17;0.93;;;;;;;;;;5017513;28;60782;-75
2024/02/23 11:11:10;;;;;;;2.67;1.40;;;;;;;;;;5015073;28;61348;-75
2024/02/23 11:13:36;;;;;;;1.90;1.13;;;;;;;;;;5016880;28;58716;-76
2024/02/23 11:16:03;;;;;;;2.60;1.35;;;;;;;;;;5015732;28;59421;-75
2024/02/23 11:18:28;;;;;;;1.50;1.10;;;;;;;;;;5017622;28;59799;-75
2024/02/23 11:20:59;;;;;;;3.10;1.58;;;;;;;;;;5016830;28;58371;-81
2024/02/23 11:23:25;;;;;;;4.40;1.70;;;;;;;;;;5020210;28;59104;-81
2024/02/23 11:26:19;;;;;;;4.25;1.50;;;;;;;;;;5013309;28;58516;-81
2024/02/23 11:28:48;;;;;;;4.55;1.85;;;;;;;;;;4999289;28;59325;-80
2024/02/23 11:31:14;;;;;;;2.60;1.65;;;;;;;;;;5016645;28;59863;-81
2024/02/23 11:33:39;;;;;;;2.45;1.35;;;;;;;;;;5020241;28;58508;-81
2024/02/23 11:36:06;;;;;;;1.87;1.30;;;;;;;;;;5015088;28;59259;-81
2024/02/23 11:38:32;;;;;;;3.05;1.48;;;;;;;;;;5026025;28;60867;-81
2024/02/23 11:40:57;;;;;;;1.75;1.13;;;;;;;;;;5015899;28;58335;-80
2024/02/23 11:43:22;;;;;;;3.30;1.23;;;;;;;;;;5024133;28;58460;-81
2024/02/23 11:45:47;;;;;;;1.83;1.10;;;;;;;;;;5022625;28;58402;-81
2024/02/23 11:48:12;;;;;;;4.37;1.27;;;;;;;;;;5013389;28;58673;-80
2024/02/23 11:50:38;;;;;;;6.27;3.07;;;;;;;;;;5026456;28;58377;-80
2024/02/23 11:53:04;;;;;;;1.80;1.23;;;;;;;;;;5027229;28;58529;-78
2024/02/23 11:55:29;;;;;;;3.75;1.88;;;;;;;;;;5022305;28;59509;-78
2024/02/23 11:57:54;;;;;;;3.13;1.43;;;;;;;;;;5016620;28;59040;-77
2024/02/23 12:00:19;;;;;;;2.88;1.48;;;;;;;;;;5019866;28;58402;-78
2024/02/23 12:02:48;;;;;;;2.20;1.23;;;;;;;;;;5028808;28;59541;-77
2024/02/23 12:05:13;;;;;;;2.83;1.65;;;;;;;;;;5022237;28;58474;-78
2024/02/23 12:07:38;;;;;;;5.07;1.83;;;;;;;;;;5017938;28;59270;-78
2024/02/23 12:10:06;;;;;;;1.47;1.17;;;;;;;;;;5011882;28;58837;-77
2024/02/23 12:12:31;;;;;;;1.80;1.50;;;;;;;;;;5015892;28;58362;-77
2024/02/23 12:14:56;;;;;;;4.43;1.70;;;;;;;;;;5027789;28;59472;-78
2024/02/23 12:17:22;;;;;;;4.97;2.40;;;;;;;;;;5017216;28;58860;-77
2024/02/23 12:19:47;;;;;;;4.63;1.52;;;;;;;;;;5023785;28;58544;-78
2024/02/23 12:22:12;;;;;;;2.13;1.00;;;;;;;;;;5021896;28;59408;-77
2024/02/23 12:24:37;;;;;;;4.70;1.40;;;;;;;;;;5018265;28;59192;-77
2024/02/23 12:27:05;;;;;;;1.83;1.27;;;;;;;;;;5023900;28;58483;-77
2024/02/23 12:29:30;;;;;;;1.13;0.80;;;;;;;;;;5015096;28;60779;-73
2024/02/23 12:32:04;;;;;;;6.45;2.17;;;;;;;;;;5015145;28;58579;-74
2024/02/23 12:34:30;;;;;;;2.90;1.40;;;;;;;;;;5013418;28;61438;-73
2024/02/23 12:36:55;;;;;;;2.40;1.13;;;;;;;;;;5012209;28;58840;-73
2024/02/23 12:39:21;;;;;;;2.58;1.30;;;;;;;;;;5017162;28;58506;-73
2024/02/23 12:41:46;;;;;;;3.80;1.30;;;;;;;;;;5014151;28;59304;-73
2024/02/23 12:44:11;;;;;;;2.57;1.23;;;;;;;;;;5026440;28;58503;-73
2024/02/23 12:46:36;;;;;;;1.73;1.42;;;;;;;;;;5011292;28;58568;-73
2024/02/23 12:49:02;;;;;;;1.87;1.03;;;;;;;;;;5015095;28;58623;-74
2024/02/23 12:51:27;;;;;;;2.17;1.07;;;;;;;;;;5022999;28;58347;-73
2024/02/23 12:53:52;;;;;;;1.90;1.47;;;;;;;;;;5027789;27;59422;-73
2024/02/23 12:56:17;;;;;;;2.00;1.60;;;;;;;;;;5024592;28;59865;-73
2024/02/23 12:58:43;;;;;;;2.05;1.25;;;;;;;;;;5009992;28;58526;-73
2024/02/23 13:01:10;;;;;;;1.63;1.02;;;;;;;;;;5016175;28;59335;-73
2024/02/23 13:03:36;;;;;;;2.70;1.40;;;;;;;;;;5025225;28;58452;-74
2024/02/23 13:06:02;;;;;;;1.88;1.27;;;;;;;;;;5020983;28;58436;-74
2024/02/23 13:08:27;;;;;;;2.97;1.40;;;;;;;;;;5028051;28;60086;-73
2024/02/23 13:10:53;;;;;;;3.27;1.90;;;;;;;;;;5011679;28;58396;-73
2024/02/23 13:13:19;;;;;;;3.58;1.60;;;;;;;;;;5009734;28;59258;-73
2024/02/23 13:15:44;;;;;;;2.75;1.33;;;;;;;;;;5010167;28;59456;-78
2024/02/23 13:18:10;;;;;;;2.55;1.50;;;;;;;;;;5013995;28;58563;-76
2024/02/23 13:20:38;;;;;;;1.63;1.10;;;;;;;;;;5028762;28;59348;-77
2024/02/23 13:23:04;;;;;;;2.30;1.50;;;;;;;;;;5029159;28;58808;-76
2024/02/23 13:25:29;;;;;;;4.45;1.70;;;;;;;;;;5020064;28;58535;-74
2024/02/23 13:27:54;;;;;;;1.97;1.20;;;;;;;;;;5017516;28;59327;-74
2024/02/23 13:30:19;;;;;;;3.87;1.90;;;;;;;;;;5017774;28;58576;-74
2024/02/23 13:32:45;;;;;;;2.17;1.63;;;;;;;;;;5028022;28;58918;-73
2024/02/23 13:35:10;;;;;;;3.10;2.10;;;;;;;;;;5027041;27;58503;-74
2024/02/23 13:37:35;;;;;;;3.97;1.00;;;;;;;;;;5027784;28;58514;-74
2024/02/23 13:40:01;;;;;;;2.05;1.20;;;;;;;;;;5026877;28;59185;-78
2024/02/23 13:42:26;;;;;;;3.72;1.40;;;;;;;;;;5024992;28;59964;-79
2024/02/23 13:44:51;;;;;;;5.30;2.27;;;;;;;;;;5026513;28;58266;-79
2024/02/23 13:47:17;;;;;;;2.15;1.33;;;;;;;;;;5026731;28;60210;-79
2024/02/23 13:49:42;;;;;;;3.00;1.63;;;;;;;;;;5023709;28;59190;-73
2024/02/23 13:52:07;;;;;;;1.57;1.13;;;;;;;;;;5029141;28;58345;-74
2024/02/23 13:54:32;;;;;;;4.57;1.53;;;;;;;;;;5029244;27;59736;-73
2024/02/23 13:56:58;;;;;;;5.25;1.70;;;;;;;;;;5030218;28;58384;-73
2024/02/23 13:59:23;;;;;;;4.03;1.50;;;;;;;;;;5027144;28;59693;-74
2024/02/23 14:01:48;;;;;;;3.03;1.30;;;;;;;;;;5028496;28;59844;-73
2024/02/23 14:04:13;;;;;;;1.33;0.88;;;;;;;;;;5027892;28;58528;-74
2024/02/23 14:06:38;;;;;;;1.83;1.13;;;;;;;;;;5029396;28;58845;-74
2024/02/23 14:09:04;;;;;;;3.87;1.20;;;;;;;;;;5026961;28;58960;-74
2024/02/23 14:11:29;;;;;;;2.88;0.98;;;;;;;;;;5031614;28;58518;-74
2024/02/23 14:13:54;;;;;;;1.75;1.13;;;;;;;;;;5030231;28;58344;-73
2024/02/23 14:16:20;;;;;;;2.80;1.90;;;;;;;;;;5028505;28;58292;-74
2024/02/23 14:18:45;;;;;;;5.20;1.37;;;;;;;;;;5024948;28;60617;-73
2024/02/23 14:21:10;;;;;;;8.50;1.67;;;;;;;;;;5019060;28;59860;-73
2024/02/23 14:23:36;;;;;;;1.60;0.90;;;;;;;;;;5029634;28;58497;-74
2024/02/23 14:26:01;;;;;;;6.45;1.15;;;;;;;;;;5007508;28;60312;-74
2024/02/23 14:28:26;;;;;;;1.40;1.02;;;;;;;;;;5005957;28;58794;-74
2024/02/23 14:30:52;;;;;;;2.22;1.45;;;;;;;;;;5008857;28;58533;-73
2024/02/23 14:33:17;;;;;;;3.55;1.85;;;;;;;;;;5013495;28;60309;-73